ENAN/ANX METAR and TAF weather

Enter ICAO airport designator
Station Type Date Time Source
ENAN METAR 2020/09/21 06:50 UTC NOAA

ENAN 210650Z 19017KT 8000 -RA FEW015 BKN036 07/06 Q0979


Station Type Date Time Source
ENAN Decoded METAR 2020/09/21 06:50 UTC NOAA

Andoya, Norway (ENAN) 69-18N 016-09E 14M
Sep 21, 2020 - 02:50 AM EDT / 2020.09.21 0650 UTC
Wind: from the S (190 degrees) at 20 MPH (17 KT):0
Visibility: 4 mile(s):0
Sky conditions: mostly cloudy
Weather: light rain
Temperature: 44 F (7 C)
Dew Point: 42 F (6 C)
Relative Humidity: 93%
Pressure (altimeter): 28.91 in. Hg (0979 hPa)
ob: ENAN 210650Z 19017KT 8000 -RA FEW015 BKN036 07/06 Q0979
cycle: 7

Station Type Date Time Source
ENAN TAF 2020/09/21 06:57 UTC NOAA

TAF TAF ENAN 210500Z 2106/2206 24025KT 9999 -SHRA FEW015 BKN030
TEMPO 2106/2109 4000 RA BKN012
TEMPO 2106/2114 24030G40KT
BECMG 2114/2117 26035G45KT
TEMPO 2114/2203 25045G60KT 4000 SHRA SCT008 BKN020CB
BECMG 2202/2205 26025KT
TEMPO 2203/2206 26030G45KT SHRA BKN014CB

Example: see airport list